Time;durP1;ratioP1;P1;durP2;ratioP2;P2;SDS_P1;SDS_P2;PMS_P1;PMS_P2;Temp;Humidity;BMP_temperature;BMP_pressure;BME280_temperature;BME280_humidity;BME280_pressure;Samples;Min_cycle;Max_cycle;Signal;HPM_P1;HPM_P2
2024/01/26 00:01:33;;;;;;;26.73;17.65;;;11.90;85.50;;;;;;5093999;28;20024;-73
2024/01/26 00:03:59;;;;;;;26.85;17.40;;;11.90;85.60;;;;;;5092424;28;20081;-72
2024/01/26 00:06:25;;;;;;;26.45;18.60;;;11.90;85.60;;;;;;5080323;28;20032;-72
2024/01/26 00:08:51;;;;;;;27.70;17.85;;;11.90;85.60;;;;;;5096235;28;20036;-72
2024/01/26 00:11:18;;;;;;;25.73;16.88;;;11.90;85.60;;;;;;5093020;28;20054;-72
2024/01/26 00:13:44;;;;;;;25.20;17.17;;;11.90;85.60;;;;;;5098570;28;20029;-72
2024/01/26 00:16:09;;;;;;;25.25;17.92;;;11.90;85.50;;;;;;5089980;28;20020;-72
2024/01/26 00:18:36;;;;;;;25.73;17.60;;;11.90;85.50;;;;;;5093486;28;20354;-72
2024/01/26 00:21:03;;;;;;;28.13;16.58;;;11.90;85.50;;;;;;5096252;28;20369;-72
2024/01/26 00:23:30;;;;;;;24.48;17.00;;;11.90;85.50;;;;;;5097121;28;20024;-72
2024/01/26 00:25:56;;;;;;;24.45;17.52;;;11.90;85.50;;;;;;5097170;28;20047;-72
2024/01/26 00:28:21;;;;;;;28.10;18.17;;;11.90;85.50;;;;;;5096185;28;20129;-72
2024/01/26 00:30:47;;;;;;;26.80;17.20;;;11.90;85.50;;;;;;5095801;28;20428;-72
2024/01/26 00:33:13;;;;;;;23.45;16.77;;;11.90;85.60;;;;;;5095976;28;20032;-72
2024/01/26 00:35:39;;;;;;;25.80;17.20;;;11.90;85.60;;;;;;5097007;28;20024;-72
2024/01/26 00:38:05;;;;;;;25.27;16.50;;;11.90;85.60;;;;;;5113114;28;20032;-72
2024/01/26 00:40:30;;;;;;;26.73;17.38;;;11.90;85.60;;;;;;5095670;28;20157;-72
2024/01/26 00:42:56;;;;;;;22.17;16.42;;;11.90;85.60;;;;;;5095930;28;20520;-72
2024/01/26 00:45:22;;;;;;;25.75;16.58;;;11.90;85.60;;;;;;5094218;28;20342;-72
2024/01/26 00:47:48;;;;;;;26.58;18.17;;;11.90;85.60;;;;;;5095788;28;20104;-72
2024/01/26 00:50:14;;;;;;;23.35;16.13;;;11.90;85.70;;;;;;5097924;28;20025;-73
2024/01/26 00:52:40;;;;;;;24.33;17.60;;;11.90;85.60;;;;;;5096488;27;20033;-72
2024/01/26 00:55:05;;;;;;;24.20;16.98;;;11.90;85.70;;;;;;5088403;28;20111;-72
2024/01/26 00:57:31;;;;;;;25.27;17.88;;;11.90;85.70;;;;;;5096790;28;20126;-72
2024/01/26 00:59:59;;;;;;;26.45;18.00;;;11.90;85.70;;;;;;5096327;28;20020;-72
2024/01/26 01:02:25;;;;;;;24.10;17.67;;;12.00;85.70;;;;;;5093190;28;20441;-72
2024/01/26 01:04:51;;;;;;;27.15;18.15;;;11.90;85.70;;;;;;5095645;28;20023;-72
2024/01/26 01:07:18;;;;;;;24.05;17.55;;;11.90;85.70;;;;;;5095954;28;20420;-72
2024/01/26 01:09:44;;;;;;;24.77;18.05;;;11.90;85.70;;;;;;5094864;28;20028;-72
2024/01/26 01:12:10;;;;;;;28.75;18.13;;;12.00;85.80;;;;;;5104143;28;20116;-72
2024/01/26 01:14:36;;;;;;;25.42;18.02;;;12.00;85.80;;;;;;5096136;28;20020;-72
2024/01/26 01:17:04;;;;;;;28.58;18.38;;;12.00;85.80;;;;;;5095935;28;20454;-72
2024/01/26 01:19:30;;;;;;;24.80;18.05;;;12.00;85.80;;;;;;5090653;28;20071;-72
2024/01/26 01:21:56;;;;;;;22.73;15.93;;;12.00;85.80;;;;;;5094420;28;20059;-72
2024/01/26 01:24:23;;;;;;;24.95;17.00;;;12.00;85.70;;;;;;5077848;28;20030;-72
2024/01/26 01:26:49;;;;;;;24.33;16.65;;;12.00;85.70;;;;;;5095767;28;20028;-72
2024/01/26 01:29:14;;;;;;;24.00;16.38;;;12.00;85.70;;;;;;5095354;28;20353;-72
2024/01/26 01:31:40;;;;;;;27.52;16.75;;;12.00;85.70;;;;;;5093881;28;20053;-72
2024/01/26 01:34:06;;;;;;;24.23;15.25;;;12.00;85.70;;;;;;5095447;28;20474;-72
2024/01/26 01:36:32;;;;;;;22.60;15.45;;;12.00;85.70;;;;;;5094845;28;20045;-72
2024/01/26 01:38:57;;;;;;;23.75;16.17;;;12.00;85.70;;;;;;5105855;28;20109;-72
2024/01/26 01:41:23;;;;;;;21.08;15.90;;;12.00;85.60;;;;;;5095602;28;20507;-72
2024/01/26 01:43:56;;;;;;;22.50;16.50;;;12.00;85.60;;;;;;5100834;27;20369;-72
2024/01/26 01:46:22;;;;;;;22.50;16.48;;;12.00;85.60;;;;;;5094728;28;20042;-72
2024/01/26 01:48:50;;;;;;;21.17;15.70;;;12.00;85.60;;;;;;5094896;28;20044;-72
2024/01/26 01:51:16;;;;;;;20.17;14.95;;;12.00;85.60;;;;;;5094330;28;20111;-72
2024/01/26 01:53:42;;;;;;;21.52;15.25;;;12.00;85.60;;;;;;5094054;28;20054;-72
2024/01/26 01:56:10;;;;;;;21.42;15.20;;;12.00;85.60;;;;;;5093785;28;20111;-72
2024/01/26 01:58:38;;;;;;;20.30;14.75;;;12.10;85.70;;;;;;5094980;28;20089;-72
2024/01/26 02:01:04;;;;;;;20.90;14.57;;;12.00;85.60;;;;;;5095051;28;20063;-72
2024/01/26 02:03:30;;;;;;;19.67;14.77;;;12.10;85.60;;;;;;5088159;28;20047;-72
2024/01/26 02:05:56;;;;;;;20.45;14.88;;;12.10;85.60;;;;;;5095166;28;20054;-72
2024/01/26 02:08:22;;;;;;;23.48;15.40;;;12.00;85.60;;;;;;5076455;28;20024;-72
2024/01/26 02:10:47;;;;;;;20.02;15.18;;;12.00;85.60;;;;;;5094722;28;20039;-72
2024/01/26 02:13:13;;;;;;;20.17;14.52;;;12.00;85.60;;;;;;5093599;28;20028;-72
2024/01/26 02:15:39;;;;;;;20.98;14.05;;;12.00;85.60;;;;;;5103611;28;20032;-72
2024/01/26 02:18:05;;;;;;;20.10;14.60;;;12.00;85.60;;;;;;5110863;28;20036;-72
2024/01/26 02:20:31;;;;;;;19.58;14.40;;;12.00;85.60;;;;;;5094261;28;20357;-72
2024/01/26 02:22:57;;;;;;;19.90;13.77;;;12.10;85.60;;;;;;5094374;28;20039;-72
2024/01/26 02:25:23;;;;;;;20.02;14.27;;;12.00;85.60;;;;;;5094024;28;20036;-72
2024/01/26 02:27:52;;;;;;;18.30;13.75;;;12.00;85.60;;;;;;5110821;28;20031;-72
2024/01/26 02:30:18;;;;;;;19.98;13.57;;;12.00;85.60;;;;;;5094294;28;20027;-72
2024/01/26 02:32:43;;;;;;;19.30;13.88;;;12.00;85.60;;;;;;5094659;28;20020;-72
2024/01/26 02:35:10;;;;;;;18.60;12.90;;;12.00;85.60;;;;;;5093782;28;20030;-72
2024/01/26 02:37:36;;;;;;;18.73;13.25;;;12.10;85.70;;;;;;5093770;28;20028;-72
2024/01/26 02:40:02;;;;;;;19.88;12.63;;;12.10;85.60;;;;;;5094210;28;20023;-72
2024/01/26 02:42:27;;;;;;;17.40;12.63;;;12.00;85.60;;;;;;5091240;28;20027;-72
2024/01/26 02:44:53;;;;;;;17.75;12.38;;;12.00;85.60;;;;;;5110497;28;20024;-72
2024/01/26 02:47:19;;;;;;;18.00;12.65;;;12.00;85.60;;;;;;5093538;28;20036;-72
2024/01/26 02:49:45;;;;;;;18.52;13.90;;;12.00;85.60;;;;;;5092873;28;20078;-72
2024/01/26 02:52:11;;;;;;;17.02;12.05;;;12.00;85.60;;;;;;5093091;28;20400;-72
2024/01/26 02:54:37;;;;;;;16.77;12.23;;;12.00;85.60;;;;;;5094000;28;20028;-72
2024/01/26 02:57:02;;;;;;;17.23;12.23;;;12.00;85.60;;;;;;5093822;28;20039;-72
2024/01/26 02:59:28;;;;;;;17.63;12.43;;;12.00;85.60;;;;;;5093692;28;20028;-72
2024/01/26 03:01:54;;;;;;;14.75;11.07;;;12.00;85.60;;;;;;5093034;28;20039;-72
2024/01/26 03:04:20;;;;;;;14.60;10.23;;;12.10;85.60;;;;;;5108822;28;20111;-72
2024/01/26 03:06:46;;;;;;;15.15;10.85;;;12.00;85.60;;;;;;5094146;28;20066;-72
2024/01/26 03:09:12;;;;;;;16.42;11.38;;;12.10;85.60;;;;;;5093184;28;20024;-72
2024/01/26 03:11:39;;;;;;;14.77;9.85;;;12.10;85.50;;;;;;5079761;28;20024;-72
2024/01/26 03:14:08;;;;;;;13.70;9.25;;;12.10;85.50;;;;;;5105146;28;20036;-72
2024/01/26 03:16:35;;;;;;;13.90;8.85;;;12.10;85.40;;;;;;5075960;28;20081;-72
2024/01/26 03:19:01;;;;;;;13.60;8.77;;;12.10;85.40;;;;;;5093251;28;20028;-72
2024/01/26 03:21:27;;;;;;;11.77;8.27;;;12.10;85.40;;;;;;5100372;28;20050;-72
2024/01/26 03:23:53;;;;;;;13.90;7.65;;;12.10;85.30;;;;;;5094860;28;20511;-72
2024/01/26 03:26:18;;;;;;;13.88;8.35;;;12.20;85.40;;;;;;5097154;28;20123;-72
2024/01/26 03:28:45;;;;;;;10.57;7.50;;;12.10;85.30;;;;;;5095609;28;20115;-72
2024/01/26 03:31:11;;;;;;;10.93;7.60;;;12.10;85.30;;;;;;5093326;28;20074;-72
2024/01/26 03:33:37;;;;;;;11.13;7.13;;;12.10;85.30;;;;;;5094448;28;20047;-72
2024/01/26 03:36:03;;;;;;;10.68;6.80;;;12.10;85.30;;;;;;5092664;28;20055;-72
2024/01/26 03:38:29;;;;;;;11.82;6.93;;;12.10;85.30;;;;;;5076253;28;20036;-72
2024/01/26 03:40:54;;;;;;;12.20;7.45;;;12.10;85.30;;;;;;5093067;28;20032;-72
2024/01/26 03:43:20;;;;;;;10.38;6.60;;;12.10;85.30;;;;;;5092634;28;20114;-72
2024/01/26 03:45:46;;;;;;;10.60;5.90;;;12.20;85.30;;;;;;5098812;28;20028;-72
2024/01/26 03:48:11;;;;;;;10.27;6.80;;;12.20;85.30;;;;;;5088991;28;20189;-72
2024/01/26 03:50:37;;;;;;;10.77;5.97;;;12.20;85.20;;;;;;5093765;28;20020;-72
2024/01/26 03:53:03;;;;;;;10.73;6.43;;;12.20;85.20;;;;;;5093591;28;20035;-72
2024/01/26 03:55:29;;;;;;;10.45;6.20;;;12.20;85.10;;;;;;5096052;28;20021;-72
2024/01/26 03:57:54;;;;;;;10.68;6.97;;;12.20;85.20;;;;;;5096082;28;20372;-72
2024/01/26 04:00:20;;;;;;;12.95;7.10;;;12.20;85.10;;;;;;5097669;28;20039;-72
2024/01/26 04:02:46;;;;;;;11.32;6.38;;;12.20;85.10;;;;;;5097148;28;20039;-72
2024/01/26 04:05:12;;;;;;;9.95;5.78;;;12.20;85.10;;;;;;5096911;28;20038;-72
2024/01/26 04:07:37;;;;;;;11.00;5.70;;;12.20;85.10;;;;;;5097378;28;20036;-72
2024/01/26 04:10:03;;;;;;;8.35;5.22;;;12.20;85.10;;;;;;5096227;28;20028;-72
2024/01/26 04:12:29;;;;;;;9.95;5.03;;;12.20;85.10;;;;;;5095745;28;20028;-72
2024/01/26 04:14:55;;;;;;;9.45;5.35;;;12.20;85.10;;;;;;5096267;28;20043;-72
2024/01/26 04:17:21;;;;;;;11.75;5.40;;;12.30;85.20;;;;;;5096327;28;20024;-72
2024/01/26 04:19:47;;;;;;;9.13;4.82;;;12.20;85.10;;;;;;5096307;28;20385;-72
2024/01/26 04:22:13;;;;;;;8.40;4.80;;;12.20;85.00;;;;;;5096184;28;20063;-72
2024/01/26 04:24:38;;;;;;;8.27;5.00;;;12.20;85.00;;;;;;5096731;28;20047;-72
2024/01/26 04:27:04;;;;;;;7.82;4.88;;;12.30;85.00;;;;;;5096365;28;20052;-72
2024/01/26 04:29:30;;;;;;;8.13;4.72;;;12.30;85.00;;;;;;5096448;28;20047;-72
2024/01/26 04:31:56;;;;;;;8.77;4.85;;;12.30;85.00;;;;;;5096746;28;20088;-72
2024/01/26 04:34:21;;;;;;;9.63;4.65;;;12.30;85.00;;;;;;5096833;28;20452;-72
2024/01/26 04:36:47;;;;;;;8.38;5.05;;;12.20;85.00;;;;;;5095244;28;20027;-72
2024/01/26 04:39:14;;;;;;;8.30;4.80;;;12.20;85.00;;;;;;5096461;28;20036;-72
2024/01/26 04:41:40;;;;;;;9.15;4.32;;;12.30;85.00;;;;;;5095862;28;20088;-72
2024/01/26 04:44:08;;;;;;;9.77;5.03;;;12.30;85.00;;;;;;5096565;28;20032;-72
2024/01/26 04:46:34;;;;;;;9.40;4.75;;;12.30;85.00;;;;;;5096886;28;20039;-72
2024/01/26 04:49:00;;;;;;;8.90;5.30;;;12.30;85.00;;;;;;5095133;28;20119;-72
2024/01/26 04:51:26;;;;;;;8.63;4.88;;;12.30;85.00;;;;;;5096167;28;20453;-72
2024/01/26 04:53:52;;;;;;;10.05;4.45;;;12.30;85.00;;;;;;5095465;28;20364;-72
2024/01/26 04:56:19;;;;;;;9.32;4.78;;;12.30;85.00;;;;;;5096607;28;20024;-72
2024/01/26 04:58:45;;;;;;;8.07;4.50;;;12.30;84.90;;;;;;5094434;28;20032;-72
2024/01/26 05:01:11;;;;;;;10.57;5.10;;;12.30;84.90;;;;;;5096358;28;20028;-72
2024/01/26 05:03:36;;;;;;;7.88;3.88;;;12.30;84.90;;;;;;5096022;28;20117;-72
2024/01/26 05:06:04;;;;;;;7.97;4.30;;;12.30;84.90;;;;;;5096189;28;20368;-72
2024/01/26 05:08:29;;;;;;;8.40;4.32;;;12.30;84.90;;;;;;5094236;28;20024;-72
2024/01/26 05:10:55;;;;;;;8.07;4.90;;;12.30;84.90;;;;;;5095214;28;20032;-72
2024/01/26 05:13:21;;;;;;;8.88;5.03;;;12.30;84.90;;;;;;5095681;28;20093;-72
2024/01/26 05:15:47;;;;;;;7.45;4.53;;;12.30;84.90;;;;;;5096293;28;20028;-72
2024/01/26 05:18:12;;;;;;;9.18;4.80;;;12.30;84.90;;;;;;5095561;28;20027;-72
2024/01/26 05:20:38;;;;;;;9.32;4.80;;;12.30;84.90;;;;;;5094333;28;20032;-72
2024/01/26 05:23:04;;;;;;;8.02;4.30;;;12.30;84.90;;;;;;5095096;28;20472;-72
2024/01/26 05:25:30;;;;;;;8.20;4.70;;;12.30;84.90;;;;;;5095473;28;20020;-72
2024/01/26 05:27:56;;;;;;;8.15;4.40;;;12.40;85.00;;;;;;5074550;28;20079;-72
2024/01/26 05:30:21;;;;;;;8.10;4.65;;;12.30;84.90;;;;;;5093965;28;20518;-72
2024/01/26 05:32:47;;;;;;;8.93;5.38;;;12.40;85.00;;;;;;5095966;28;20046;-73
2024/01/26 05:35:13;;;;;;;9.38;5.45;;;12.30;84.90;;;;;;5094525;28;20028;-72
2024/01/26 05:37:39;;;;;;;10.40;5.20;;;12.30;84.90;;;;;;5094932;28;20020;-72
2024/01/26 05:40:06;;;;;;;10.23;4.78;;;12.30;85.00;;;;;;5107756;27;20394;-72
2024/01/26 05:42:32;;;;;;;10.98;5.60;;;12.40;85.00;;;;;;5079873;28;20115;-72
2024/01/26 05:44:58;;;;;;;9.93;5.43;;;12.40;85.00;;;;;;5095969;28;20421;-72
2024/01/26 05:47:23;;;;;;;9.70;5.18;;;12.40;85.00;;;;;;5094879;28;20040;-72
2024/01/26 05:49:50;;;;;;;9.70;5.43;;;12.40;85.00;;;;;;5094063;28;20123;-72
2024/01/26 05:52:16;;;;;;;10.57;5.80;;;12.40;85.10;;;;;;5096926;28;20023;-72
2024/01/26 05:54:42;;;;;;;10.30;5.75;;;12.30;85.10;;;;;;5104622;28;20551;-72
2024/01/26 05:57:08;;;;;;;11.73;6.03;;;12.40;85.10;;;;;;5096052;28;20040;-72
2024/01/26 05:59:37;;;;;;;11.35;6.75;;;12.40;85.20;;;;;;5095026;28;20086;-72
2024/01/26 06:02:03;;;;;;;10.05;6.47;;;12.40;85.20;;;;;;5098448;28;20059;-71
2024/01/26 06:04:31;;;;;;;11.82;6.13;;;12.30;85.10;;;;;;5094915;28;20038;-71
2024/01/26 06:06:57;;;;;;;10.63;6.65;;;12.40;85.20;;;;;;5095365;28;20038;-71
2024/01/26 06:09:23;;;;;;;9.00;6.35;;;12.40;85.20;;;;;;5093678;28;20104;-71
2024/01/26 06:11:49;;;;;;;10.48;6.53;;;12.40;85.20;;;;;;5094772;28;20028;-71
2024/01/26 06:14:15;;;;;;;11.57;7.10;;;12.40;85.20;;;;;;5094070;28;20028;-71
2024/01/26 06:16:41;;;;;;;9.48;6.20;;;12.40;85.30;;;;;;5094350;28;20032;-71
2024/01/26 06:19:06;;;;;;;12.20;7.65;;;12.40;85.30;;;;;;5094549;28;20020;-71
2024/01/26 06:21:32;;;;;;;11.20;7.25;;;12.40;85.30;;;;;;5094332;28;20368;-72
2024/01/26 06:23:59;;;;;;;13.13;7.68;;;12.40;85.30;;;;;;5092468;28;20110;-71
2024/01/26 06:26:25;;;;;;;12.02;6.85;;;12.40;85.30;;;;;;5093045;28;20032;-71
2024/01/26 06:28:51;;;;;;;11.18;7.03;;;12.30;85.30;;;;;;5087752;28;20024;-72
2024/01/26 06:31:17;;;;;;;13.18;6.88;;;12.30;85.40;;;;;;5092918;28;20032;-72
2024/01/26 06:33:43;;;;;;;11.13;6.47;;;12.30;85.40;;;;;;5094638;28;20016;-72
2024/01/26 06:36:11;;;;;;;11.73;6.38;;;12.30;85.50;;;;;;5093374;28;20028;-72
2024/01/26 06:38:40;;;;;;;10.75;6.15;;;12.30;85.50;;;;;;5094319;28;20039;-72
2024/01/26 06:41:07;;;;;;;10.07;6.05;;;12.30;85.60;;;;;;5092773;28;20024;-71
2024/01/26 06:43:33;;;;;;;10.68;6.45;;;12.30;85.60;;;;;;5098818;28;20043;-72
2024/01/26 06:45:59;;;;;;;10.57;5.72;;;12.30;85.60;;;;;;5093965;28;20028;-72
2024/01/26 06:48:26;;;;;;;9.55;6.18;;;12.30;85.60;;;;;;5092779;28;20044;-71
2024/01/26 06:50:52;;;;;;;10.48;6.00;;;12.30;85.70;;;;;;5085424;28;20027;-71
2024/01/26 06:53:18;;;;;;;10.00;6.13;;;12.30;85.70;;;;;;5088075;28;20058;-71
2024/01/26 06:55:45;;;;;;;9.02;5.85;;;12.30;85.70;;;;;;5095635;28;20306;-71
2024/01/26 06:58:11;;;;;;;9.27;5.30;;;12.30;85.80;;;;;;5093968;28;20039;-71
2024/01/26 07:00:36;;;;;;;8.70;5.32;;;12.30;85.90;;;;;;5093305;28;20371;-72
2024/01/26 07:03:02;;;;;;;9.38;5.50;;;12.30;85.90;;;;;;5092645;28;20024;-71
2024/01/26 07:05:28;;;;;;;9.98;5.88;;;12.30;86.00;;;;;;5092314;28;20047;-71
2024/01/26 07:07:56;;;;;;;8.45;5.30;;;12.30;86.10;;;;;;5091789;28;20027;-71
2024/01/26 07:10:23;;;;;;;7.97;4.90;;;12.30;86.10;;;;;;5099619;28;20406;-71
2024/01/26 07:12:48;;;;;;;9.30;5.38;;;12.30;86.10;;;;;;5092766;28;20036;-71
2024/01/26 07:15:14;;;;;;;9.27;5.15;;;12.30;86.10;;;;;;5091803;28;20102;-72
2024/01/26 07:17:40;;;;;;;7.68;4.50;;;12.30;86.20;;;;;;5074609;28;20031;-68
2024/01/26 07:20:06;;;;;;;8.80;4.80;;;12.20;86.10;;;;;;5091683;28;20024;-72
2024/01/26 07:22:32;;;;;;;8.25;4.85;;;12.20;86.10;;;;;;5093158;28;20349;-71
2024/01/26 07:24:58;;;;;;;8.98;4.60;;;12.30;86.20;;;;;;5093300;28;20032;-71
2024/01/26 07:27:24;;;;;;;8.88;4.45;;;12.30;86.30;;;;;;5095008;28;20020;-70
2024/01/26 07:29:49;;;;;;;8.80;4.60;;;12.30;86.30;;;;;;5096985;28;20356;-71
2024/01/26 07:32:15;;;;;;;9.18;4.45;;;12.30;86.30;;;;;;5097942;28;20024;-71
2024/01/26 07:34:41;;;;;;;7.90;4.70;;;12.30;86.30;;;;;;5097345;28;20206;-71
2024/01/26 07:37:07;;;;;;;8.00;4.22;;;12.30;86.30;;;;;;5098619;28;20023;-71
2024/01/26 07:39:33;;;;;;;7.30;4.18;;;12.30;86.40;;;;;;5097690;28;20464;-71
2024/01/26 07:42:00;;;;;;;8.63;5.00;;;12.30;86.40;;;;;;5097505;28;20043;-71
2024/01/26 07:44:27;;;;;;;9.52;4.60;;;12.30;87.00;;;;;;5098295;28;20084;-71
2024/01/26 07:46:53;;;;;;;8.80;4.53;;;12.30;86.40;;;;;;5096206;28;20457;-71
2024/01/26 07:49:19;;;;;;;7.75;4.50;;;12.30;86.30;;;;;;5097205;28;20093;-71
2024/01/26 07:51:44;;;;;;;8.13;4.10;;;12.30;86.40;;;;;;5096987;28;20126;-71
2024/01/26 07:54:10;;;;;;;8.27;4.63;;;12.40;86.40;;;;;;5097450;28;20024;-71
2024/01/26 07:56:36;;;;;;;8.77;5.43;;;12.30;87.00;;;;;;5095992;28;20028;-71
2024/01/26 07:59:02;;;;;;;7.50;4.55;;;12.30;86.40;;;;;;5096547;28;20032;-71
2024/01/26 08:01:28;;;;;;;8.40;4.32;;;12.40;86.50;;;;;;5096956;28;20028;-71
2024/01/26 08:03:53;;;;;;;7.38;4.55;;;12.40;86.60;;;;;;5095570;28;20020;-71
2024/01/26 08:06:19;;;;;;;7.68;4.78;;;12.30;86.60;;;;;;5094694;28;20433;-71
2024/01/26 08:08:45;;;;;;;9.20;5.50;;;12.40;86.60;;;;;;5094196;28;20032;-70
2024/01/26 08:11:10;;;;;;;9.75;5.50;;;12.40;86.70;;;;;;5094993;28;20039;-69
2024/01/26 08:13:36;;;;;;;9.63;5.22;;;12.30;86.70;;;;;;5095313;28;20028;-70
2024/01/26 08:16:03;;;;;;;8.73;5.30;;;12.40;86.80;;;;;;5103978;27;20016;-70
2024/01/26 08:18:28;;;;;;;8.45;5.30;;;12.40;86.80;;;;;;5094255;28;20039;-70
2024/01/26 08:20:54;;;;;;;8.43;5.43;;;12.40;86.80;;;;;;5099520;28;20032;-70
2024/01/26 08:23:20;;;;;;;8.43;5.63;;;12.40;86.80;;;;;;5096802;28;20036;-70
2024/01/26 08:25:46;;;;;;;9.23;5.72;;;12.40;86.80;;;;;;5096103;28;20103;-70
2024/01/26 08:28:12;;;;;;;9.85;5.82;;;12.50;86.90;;;;;;5095419;28;20127;-69
2024/01/26 08:30:38;;;;;;;9.10;5.80;;;12.50;86.90;;;;;;5096462;28;20042;-70
2024/01/26 08:33:04;;;;;;;8.93;5.40;;;12.50;86.90;;;;;;5077977;28;20414;-68
2024/01/26 08:35:29;;;;;;;9.05;5.85;;;12.50;86.80;;;;;;5095301;28;20111;-70
2024/01/26 08:37:55;;;;;;;8.55;5.50;;;12.60;86.80;;;;;;5094932;28;20020;-67
2024/01/26 08:40:21;;;;;;;10.65;6.65;;;12.60;86.70;;;;;;5104545;27;20032;-71
2024/01/26 08:42:47;;;;;;;8.95;6.25;;;12.60;86.70;;;;;;5094499;28;20020;-70
2024/01/26 08:45:13;;;;;;;10.90;6.28;;;12.60;86.80;;;;;;5094913;28;20035;-71
2024/01/26 08:47:38;;;;;;;9.73;6.35;;;12.60;86.80;;;;;;5087804;28;20464;-70
2024/01/26 08:50:05;;;;;;;11.93;7.18;;;12.60;86.80;;;;;;5089367;28;20035;-70
2024/01/26 08:52:31;;;;;;;9.90;6.80;;;12.60;86.90;;;;;;5091009;28;20111;-71
2024/01/26 08:54:58;;;;;;;10.88;6.75;;;12.60;86.80;;;;;;5088971;28;20130;-70
2024/01/26 08:57:24;;;;;;;11.15;6.90;;;12.60;86.90;;;;;;5097273;28;20395;-70
2024/01/26 08:59:49;;;;;;;9.40;6.65;;;12.70;86.90;;;;;;5096814;28;20063;-71
2024/01/26 09:02:15;;;;;;;9.45;6.30;;;12.70;86.90;;;;;;5095959;28;20060;-70
2024/01/26 09:04:41;;;;;;;10.70;6.93;;;12.70;86.90;;;;;;5097024;28;20036;-70
2024/01/26 09:07:07;;;;;;;8.73;5.90;;;12.70;86.90;;;;;;5095872;28;20048;-70
2024/01/26 09:09:32;;;;;;;10.73;6.80;;;12.70;86.90;;;;;;5093458;28;20043;-70
2024/01/26 09:11:58;;;;;;;9.45;6.15;;;12.70;86.90;;;;;;5086071;28;20063;-70
2024/01/26 09:14:24;;;;;;;11.73;6.28;;;12.70;86.90;;;;;;5096366;28;20074;-70
2024/01/26 09:16:53;;;;;;;10.73;6.28;;;12.70;86.90;;;;;;5082185;28;20027;-70
2024/01/26 09:19:19;;;;;;;9.07;5.47;;;12.70;87.00;;;;;;5094810;28;20429;-70
2024/01/26 09:21:46;;;;;;;9.63;4.95;;;12.70;87.10;;;;;;5094135;28;20079;-71
2024/01/26 09:24:12;;;;;;;8.55;4.60;;;12.60;87.10;;;;;;5094219;28;20112;-71
2024/01/26 09:26:39;;;;;;;7.85;4.28;;;12.70;87.10;;;;;;5095053;28;20508;-71
2024/01/26 09:29:07;;;;;;;8.30;3.88;;;12.70;87.20;;;;;;5095053;28;20028;-69
2024/01/26 09:31:33;;;;;;;9.15;4.53;;;12.60;87.10;;;;;;5099638;28;20027;-70
2024/01/26 09:33:59;;;;;;;7.53;3.70;;;12.60;87.10;;;;;;5094728;28;20028;-69
2024/01/26 09:36:25;;;;;;;8.73;3.28;;;12.60;87.20;;;;;;5093950;28;20035;-69
2024/01/26 09:38:51;;;;;;;6.88;2.53;;;12.60;87.30;;;;;;5094536;28;20052;-70
2024/01/26 09:41:17;;;;;;;6.88;2.30;;;12.60;87.30;;;;;;5093539;28;20487;-70
2024/01/26 09:43:43;;;;;;;6.47;2.03;;;12.60;87.10;;;;;;5095023;28;20107;-70
2024/01/26 09:46:09;;;;;;;5.57;1.70;;;12.60;87.00;;;;;;5094311;28;20034;-71
2024/01/26 09:48:36;;;;;;;7.75;1.98;;;12.60;86.90;;;;;;5093157;28;20059;-71
2024/01/26 09:51:02;;;;;;;5.88;1.98;;;12.60;86.70;;;;;;5093731;28;20113;-71
2024/01/26 09:53:29;;;;;;;5.47;1.58;;;12.50;86.40;;;;;;5077027;28;20081;-71
2024/01/26 09:55:55;;;;;;;5.28;1.50;;;12.50;86.20;;;;;;5094971;28;20031;-71
2024/01/26 09:58:21;;;;;;;5.38;1.33;;;12.50;86.20;;;;;;5093565;28;20036;-69
2024/01/26 10:00:48;;;;;;;3.08;0.98;;;12.40;86.00;;;;;;5093192;28;20024;-71
2024/01/26 10:03:14;;;;;;;6.18;1.50;;;12.30;85.40;;;;;;5091637;28;20109;-72
2024/01/26 10:05:40;;;;;;;3.45;1.02;;;12.10;85.00;;;;;;5094194;28;20066;-72
2024/01/26 10:08:08;;;;;;;4.45;1.30;;;12.00;84.60;;;;;;5093654;28;20028;-72
2024/01/26 10:10:34;;;;;;;4.97;1.52;;;11.90;85.00;;;;;;5091830;28;20024;-71
2024/01/26 10:12:59;;;;;;;2.95;1.00;;;11.80;84.20;;;;;;5093787;28;20021;-71
2024/01/26 10:15:25;;;;;;;8.38;1.10;;;11.80;84.00;;;;;;5094439;28;20020;-73
2024/01/26 10:17:54;;;;;;;3.03;0.90;;;11.90;83.70;;;;;;5093443;28;20375;-73
2024/01/26 10:20:20;;;;;;;4.65;0.90;;;11.80;83.30;;;;;;5106287;28;20039;-73
2024/01/26 10:22:46;;;;;;;5.18;1.65;;;11.80;83.10;;;;;;5094025;28;20012;-69
2024/01/26 10:25:13;;;;;;;4.57;1.17;;;11.70;82.70;;;;;;5093423;28;20089;-70
2024/01/26 10:27:40;;;;;;;7.40;1.20;;;11.70;82.40;;;;;;5094039;28;20020;-69
2024/01/26 10:30:07;;;;;;;4.32;1.33;;;11.70;82.00;;;;;;5094008;28;20032;-71
2024/01/26 10:32:33;;;;;;;4.05;1.25;;;11.60;81.90;;;;;;5093874;28;20024;-71
2024/01/26 10:35:01;;;;;;;7.20;1.33;;;11.60;81.80;;;;;;5094211;28;20496;-71
2024/01/26 10:37:28;;;;;;;8.05;1.23;;;11.70;81.60;;;;;;5104610;28;20028;-71
2024/01/26 10:39:58;;;;;;;7.22;1.15;;;11.70;81.30;;;;;;5093928;28;20039;-73
2024/01/26 10:42:25;;;;;;;6.78;1.55;;;11.80;81.00;;;;;;5093600;28;20059;-72
2024/01/26 10:44:53;;;;;;;9.68;1.65;;;11.90;80.80;;;;;;5091677;28;20020;-73
2024/01/26 10:47:21;;;;;;;7.57;1.60;;;12.20;80.30;;;;;;5093708;28;20460;-72
2024/01/26 10:49:49;;;;;;;9.13;2.33;;;12.50;79.50;;;;;;5093919;28;20028;-73
2024/01/26 10:52:19;;;;;;;8.35;1.60;;;12.60;78.50;;;;;;5093994;28;20036;-70
2024/01/26 10:54:47;;;;;;;8.00;1.77;;;12.80;77.70;;;;;;5092504;28;20031;-70
2024/01/26 10:57:13;;;;;;;5.20;1.20;;;12.90;77.40;;;;;;5075431;28;20357;-67
2024/01/26 10:59:41;;;;;;;6.82;1.85;;;13.00;76.80;;;;;;5093822;28;20032;-69
2024/01/26 11:02:34;;;;;;;6.47;1.85;;;13.10;76.20;;;;;;5093039;28;20028;-71
2024/01/26 11:05:07;;;;;;;8.23;1.88;;;13.10;75.60;;;;;;5088249;28;20036;-74
2024/01/26 11:07:37;;;;;;;8.50;1.40;;;13.10;75.20;;;;;;5093992;28;20509;-74
2024/01/26 11:10:06;;;;;;;6.43;1.75;;;13.10;74.60;;;;;;5088405;28;20064;-74
2024/01/26 11:12:34;;;;;;;6.22;1.40;;;13.10;73.70;;;;;;5087269;28;20024;-73
2024/01/26 11:15:08;;;;;;;6.72;1.60;;;13.00;73.50;;;;;;5074774;28;20020;-73
2024/01/26 11:17:45;;;;;;;7.88;1.85;;;13.00;73.00;;;;;;5093519;28;20039;-72
2024/01/26 11:20:25;;;;;;;7.68;1.60;;;13.00;72.50;;;;;;5093733;28;20035;-74
2024/01/26 11:23:11;;;;;;;8.50;1.88;;;13.00;71.50;;;;;;5092814;28;20020;-71
2024/01/26 11:25:40;;;;;;;8.82;2.50;;;12.90;71.40;;;;;;5092026;28;20046;-74
2024/01/26 11:28:07;;;;;;;6.28;1.63;;;12.90;71.70;;;;;;5092198;28;20032;-73
2024/01/26 11:30:35;;;;;;;7.40;1.42;;;12.80;71.50;;;;;;5093596;28;20087;-74
2024/01/26 11:33:01;;;;;;;9.32;1.98;;;12.80;71.20;;;;;;5092331;28;20076;-73
2024/01/26 11:35:27;;;;;;;7.65;2.05;;;12.70;71.00;;;;;;5093645;28;20020;-72
2024/01/26 11:37:58;;;;;;;6.88;2.00;;;12.70;71.00;;;;;;5074933;28;20112;-71
2024/01/26 11:40:23;;;;;;;9.35;2.08;;;12.70;70.70;;;;;;5092715;28;20016;-73
2024/01/26 11:42:52;;;;;;;8.85;2.17;;;12.70;70.40;;;;;;5074293;28;20038;-70
2024/01/26 11:45:39;;;;;;;7.07;1.90;;;12.60;70.10;;;;;;5091623;28;20088;-72
2024/01/26 11:48:07;;;;;;;11.23;1.95;;;12.60;70.00;;;;;;5091312;28;20048;-72
2024/01/26 11:50:33;;;;;;;6.63;1.73;;;12.60;69.90;;;;;;5092018;28;20039;-73
2024/01/26 11:52:59;;;;;;;9.55;2.20;;;12.50;69.50;;;;;;5091011;28;20028;-74
2024/01/26 11:55:25;;;;;;;7.30;1.80;;;12.40;69.40;;;;;;5091955;28;20028;-75
2024/01/26 11:57:51;;;;;;;9.73;1.30;;;12.50;69.20;;;;;;5074173;28;20016;-74
2024/01/26 12:00:20;;;;;;;10.73;2.22;;;12.40;68.50;;;;;;5092545;28;20024;-74
2024/01/26 12:02:46;;;;;;;13.95;2.38;;;12.40;68.40;;;;;;5074456;28;20024;-75
2024/01/26 12:05:12;;;;;;;7.78;2.17;;;12.30;67.80;;;;;;5092148;28;20019;-74
2024/01/26 12:07:38;;;;;;;10.95;1.98;;;12.30;68.20;;;;;;5091347;28;20031;-71
2024/01/26 12:10:04;;;;;;;10.82;1.92;;;12.30;68.00;;;;;;5090745;28;20086;-75
2024/01/26 12:12:31;;;;;;;9.48;1.85;;;12.30;67.80;;;;;;5076170;28;20020;-74
2024/01/26 12:14:57;;;;;;;9.52;1.90;;;12.30;67.70;;;;;;5094086;28;20016;-73
2024/01/26 12:17:24;;;;;;;8.85;1.80;;;12.30;67.50;;;;;;5096567;28;20444;-73
2024/01/26 12:19:49;;;;;;;8.90;1.63;;;12.30;67.40;;;;;;5096125;28;20645;-73
2024/01/26 12:22:16;;;;;;;9.43;2.03;;;12.40;67.20;;;;;;5095487;28;20127;-75
2024/01/26 12:24:42;;;;;;;9.80;2.38;;;12.30;66.60;;;;;;5095083;28;20060;-74
2024/01/26 12:27:09;;;;;;;9.80;1.92;;;12.30;66.40;;;;;;5095507;28;20066;-75
2024/01/26 12:29:35;;;;;;;10.55;1.85;;;12.30;66.20;;;;;;5096363;28;20032;-74
2024/01/26 12:32:04;;;;;;;9.35;1.73;;;12.30;66.20;;;;;;5096132;28;20052;-75
2024/01/26 12:34:31;;;;;;;8.13;1.90;;;12.20;65.80;;;;;;5096159;28;20031;-74
2024/01/26 12:37:00;;;;;;;10.82;2.30;;;12.20;65.80;;;;;;5094610;28;20532;-74